sensor_id;sensor_type;location;lat;lon;timestamp;pressure;altitude;pressure_sealevel;temperature;humidity
47524;BME280;33253;42.144;25.884;2023-04-25T00:01:58;99777.31;;;13.43;94.89
47524;BME280;33253;42.144;25.884;2023-04-25T00:04:25;99819.91;;;13.59;96.98
47524;BME280;33253;42.144;25.884;2023-04-25T00:06:51;99790.19;;;13.37;98.56
47524;BME280;33253;42.144;25.884;2023-04-25T00:09:17;99837.16;;;13.57;99.60
47524;BME280;33253;42.144;25.884;2023-04-25T00:11:42;99826.59;;;13.47;100.00
47524;BME280;33253;42.144;25.884;2023-04-25T00:14:08;99832.59;;;13.41;100.00
47524;BME280;33253;42.144;25.884;2023-04-25T00:16:35;99808.97;;;13.25;100.00
47524;BME280;33253;42.144;25.884;2023-04-25T00:19:03;99822.78;;;13.24;100.00
47524;BME280;33253;42.144;25.884;2023-04-25T00:21:29;99810.53;;;13.16;100.00
47524;BME280;33253;42.144;25.884;2023-04-25T00:23:56;99732.91;;;12.65;100.00
47524;BME280;33253;42.144;25.884;2023-04-25T00:26:22;99787.69;;;12.90;100.00
47524;BME280;33253;42.144;25.884;2023-04-25T00:28:48;99805.84;;;12.90;100.00
47524;BME280;33253;42.144;25.884;2023-04-25T00:31:13;99803.16;;;12.85;100.00
47524;BME280;33253;42.144;25.884;2023-04-25T00:33:39;99817.03;;;12.87;100.00
47524;BME280;33253;42.144;25.884;2023-04-25T00:36:05;99798.91;;;12.89;100.00
47524;BME280;33253;42.144;25.884;2023-04-25T00:38:31;99793.81;;;12.93;100.00
47524;BME280;33253;42.144;25.884;2023-04-25T00:40:56;99793.94;;;13.01;100.00
47524;BME280;33253;42.144;25.884;2023-04-25T00:43:25;99765.25;;;12.92;100.00
47524;BME280;33253;42.144;25.884;2023-04-25T00:45:52;99730.53;;;12.81;100.00
47524;BME280;33253;42.144;25.884;2023-04-25T00:48:17;99772.66;;;13.22;100.00
47524;BME280;33253;42.144;25.884;2023-04-25T00:50:52;99772.75;;;13.29;100.00
47524;BME280;33253;42.144;25.884;2023-04-25T00:53:19;99766.72;;;13.31;100.00
47524;BME280;33253;42.144;25.884;2023-04-25T00:55:45;99769.56;;;13.47;100.00
47524;BME280;33253;42.144;25.884;2023-04-25T00:58:11;99757.50;;;13.49;100.00
47524;BME280;33253;42.144;25.884;2023-04-25T01:00:39;99759.34;;;13.57;100.00
47524;BME280;33253;42.144;25.884;2023-04-25T01:03:05;99731.28;;;13.29;100.00
47524;BME280;33253;42.144;25.884;2023-04-25T01:05:31;99746.28;;;13.51;100.00
47524;BME280;33253;42.144;25.884;2023-04-25T01:07:56;99743.72;;;13.54;100.00
47524;BME280;33253;42.144;25.884;2023-04-25T01:10:22;99734.09;;;13.46;100.00
47524;BME280;33253;42.144;25.884;2023-04-25T01:12:48;99735.00;;;13.46;100.00
47524;BME280;33253;42.144;25.884;2023-04-25T01:15:13;99721.97;;;13.41;100.00
47524;BME280;33253;42.144;25.884;2023-04-25T01:17:39;99718.72;;;13.58;100.00
47524;BME280;33253;42.144;25.884;2023-04-25T01:20:06;99710.06;;;13.56;100.00
47524;BME280;33253;42.144;25.884;2023-04-25T01:22:33;99703.97;;;13.55;100.00
47524;BME280;33253;42.144;25.884;2023-04-25T01:24:59;99723.19;;;13.68;100.00
47524;BME280;33253;42.144;25.884;2023-04-25T01:27:27;99674.47;;;13.44;100.00
47524;BME280;33253;42.144;25.884;2023-04-25T01:29:54;99716.97;;;13.57;100.00
47524;BME280;33253;42.144;25.884;2023-04-25T01:32:20;99710.00;;;13.53;100.00
47524;BME280;33253;42.144;25.884;2023-04-25T01:34:46;99701.22;;;13.41;100.00
47524;BME280;33253;42.144;25.884;2023-04-25T01:37:12;99690.63;;;13.27;100.00
47524;BME280;33253;42.144;25.884;2023-04-25T01:39:37;99694.06;;;13.25;100.00
47524;BME280;33253;42.144;25.884;2023-04-25T01:42:03;99688.03;;;13.27;100.00
47524;BME280;33253;42.144;25.884;2023-04-25T01:44:29;99697.72;;;13.38;100.00
47524;BME280;33253;42.144;25.884;2023-04-25T01:46:54;99688.97;;;13.33;100.00
47524;BME280;33253;42.144;25.884;2023-04-25T01:49:20;99697.72;;;13.38;100.00
47524;BME280;33253;42.144;25.884;2023-04-25T01:51:45;99702.97;;;13.42;100.00
47524;BME280;33253;42.144;25.884;2023-04-25T01:54:10;99707.31;;;13.43;100.00
47524;BME280;33253;42.144;25.884;2023-04-25T01:56:37;99700.38;;;13.41;100.00
47524;BME280;33253;42.144;25.884;2023-04-25T01:59:04;99702.03;;;13.37;100.00
47524;BME280;33253;42.144;25.884;2023-04-25T02:01:29;99702.78;;;13.33;100.00
47524;BME280;33253;42.144;25.884;2023-04-25T02:03:55;99664.41;;;13.04;100.00
47524;BME280;33253;42.144;25.884;2023-04-25T02:06:20;99713.72;;;13.09;100.00
47524;BME280;33253;42.144;25.884;2023-04-25T02:08:46;99707.41;;;12.93;100.00
47524;BME280;33253;42.144;25.884;2023-04-25T02:11:11;99695.19;;;12.84;100.00
47524;BME280;33253;42.144;25.884;2023-04-25T02:13:37;99702.31;;;12.98;100.00
47524;BME280;33253;42.144;25.884;2023-04-25T02:16:02;99690.94;;;12.86;100.00
47524;BME280;33253;42.144;25.884;2023-04-25T02:18:28;99697.78;;;12.83;100.00
47524;BME280;33253;42.144;25.884;2023-04-25T02:20:53;99700.16;;;12.70;100.00
47524;BME280;33253;42.144;25.884;2023-04-25T02:23:19;99669.75;;;12.57;100.00
47524;BME280;33253;42.144;25.884;2023-04-25T02:25:45;99696.75;;;12.73;100.00
47524;BME280;33253;42.144;25.884;2023-04-25T02:28:10;99700.19;;;12.72;100.00
47524;BME280;33253;42.144;25.884;2023-04-25T02:30:36;99665.31;;;12.50;100.00
47524;BME280;33253;42.144;25.884;2023-04-25T02:33:01;99699.88;;;12.52;100.00
47524;BME280;33253;42.144;25.884;2023-04-25T02:35:27;99695.44;;;12.46;100.00
47524;BME280;33253;42.144;25.884;2023-04-25T02:37:52;99696.16;;;12.37;100.00
47524;BME280;33253;42.144;25.884;2023-04-25T02:40:18;99699.78;;;12.45;100.00
47524;BME280;33253;42.144;25.884;2023-04-25T02:42:43;99693.66;;;12.40;100.00
47524;BME280;33253;42.144;25.884;2023-04-25T02:45:11;99660.41;;;12.14;100.00
47524;BME280;33253;42.144;25.884;2023-04-25T02:47:36;99664.59;;;12.06;100.00
47524;BME280;33253;42.144;25.884;2023-04-25T02:50:02;99689.00;;;12.21;100.00
47524;BME280;33253;42.144;25.884;2023-04-25T02:52:28;99680.38;;;12.22;100.00
47524;BME280;33253;42.144;25.884;2023-04-25T02:54:53;99646.41;;;12.02;100.00
47524;BME280;33253;42.144;25.884;2023-04-25T02:57:19;99676.13;;;12.24;100.00
47524;BME280;33253;42.144;25.884;2023-04-25T02:59:44;99684.94;;;12.35;100.00
47524;BME280;33253;42.144;25.884;2023-04-25T03:02:10;99689.44;;;12.47;100.00
47524;BME280;33253;42.144;25.884;2023-04-25T03:04:36;99686.03;;;12.50;100.00
47524;BME280;33253;42.144;25.884;2023-04-25T03:07:02;99642.69;;;12.36;100.00
47524;BME280;33253;42.144;25.884;2023-04-25T03:09:27;99648.06;;;12.49;100.00
47524;BME280;33253;42.144;25.884;2023-04-25T03:11:53;99677.81;;;12.75;100.00
47524;BME280;33253;42.144;25.884;2023-04-25T03:14:18;99626.56;;;12.56;100.00
47524;BME280;33253;42.144;25.884;2023-04-25T03:16:43;99640.53;;;12.67;100.00
47524;BME280;33253;42.144;25.884;2023-04-25T03:19:09;99677.97;;;12.86;100.00
47524;BME280;33253;42.144;25.884;2023-04-25T03:21:35;99681.31;;;12.79;100.00
47524;BME280;33253;42.144;25.884;2023-04-25T03:24:02;99677.78;;;12.74;100.00
47524;BME280;33253;42.144;25.884;2023-04-25T03:26:28;99643.69;;;12.46;100.00
47524;BME280;33253;42.144;25.884;2023-04-25T03:28:54;99687.25;;;12.72;100.00
47524;BME280;33253;42.144;25.884;2023-04-25T03:31:19;99689.72;;;12.66;100.00
47524;BME280;33253;42.144;25.884;2023-04-25T03:33:45;99634.91;;;12.36;100.00
47524;BME280;33253;42.144;25.884;2023-04-25T03:36:10;99647.00;;;12.37;100.00
47524;BME280;33253;42.144;25.884;2023-04-25T03:38:35;99674.09;;;12.59;100.00
47524;BME280;33253;42.144;25.884;2023-04-25T03:41:01;99661.16;;;12.61;100.00
47524;BME280;33253;42.144;25.884;2023-04-25T03:43:27;99659.59;;;12.71;100.00
47524;BME280;33253;42.144;25.884;2023-04-25T03:45:52;99664.00;;;12.75;100.00
47524;BME280;33253;42.144;25.884;2023-04-25T03:48:18;99671.72;;;12.73;100.00
47524;BME280;33253;42.144;25.884;2023-04-25T03:50:46;99676.81;;;12.67;100.00
47524;BME280;33253;42.144;25.884;2023-04-25T03:53:11;99637.50;;;12.36;100.00
47524;BME280;33253;42.144;25.884;2023-04-25T03:55:38;99698.13;;;12.51;100.00
47524;BME280;33253;42.144;25.884;2023-04-25T03:58:03;99686.69;;;12.36;100.00
47524;BME280;33253;42.144;25.884;2023-04-25T04:00:29;99683.09;;;12.29;100.00
47524;BME280;33253;42.144;25.884;2023-04-25T04:02:54;99659.69;;;12.22;100.00
47524;BME280;33253;42.144;25.884;2023-04-25T04:05:19;99590.91;;;11.86;100.00
47524;BME280;33253;42.144;25.884;2023-04-25T04:07:45;99707.81;;;12.62;100.00
47524;BME280;33253;42.144;25.884;2023-04-25T04:10:11;99678.34;;;12.56;100.00
47524;BME280;33253;42.144;25.884;2023-04-25T04:12:37;99698.44;;;12.69;100.00
47524;BME280;33253;42.144;25.884;2023-04-25T04:15:04;99696.66;;;12.67;100.00
47524;BME280;33253;42.144;25.884;2023-04-25T04:17:30;99705.13;;;12.56;100.00
47524;BME280;33253;42.144;25.884;2023-04-25T04:19:55;99695.50;;;12.48;100.00
47524;BME280;33253;42.144;25.884;2023-04-25T04:22:22;99704.00;;;12.40;100.00
47524;BME280;33253;42.144;25.884;2023-04-25T04:24:49;99701.28;;;12.33;100.00
47524;BME280;33253;42.144;25.884;2023-04-25T04:27:18;99703.81;;;12.31;100.00
47524;BME280;33253;42.144;25.884;2023-04-25T04:29:45;99691.75;;;12.30;100.00
47524;BME280;33253;42.144;25.884;2023-04-25T04:32:12;99706.69;;;12.46;100.00
47524;BME280;33253;42.144;25.884;2023-04-25T04:34:37;99697.34;;;12.55;100.00
47524;BME280;33253;42.144;25.884;2023-04-25T04:37:04;99677.94;;;12.31;100.00
47524;BME280;33253;42.144;25.884;2023-04-25T04:39:30;99699.66;;;12.38;100.00
47524;BME280;33253;42.144;25.884;2023-04-25T04:41:55;99703.19;;;12.44;100.00
47524;BME280;33253;42.144;25.884;2023-04-25T04:44:21;99705.97;;;12.55;100.00
47524;BME280;33253;42.144;25.884;2023-04-25T04:46:46;99681.09;;;12.64;100.00
47524;BME280;33253;42.144;25.884;2023-04-25T04:49:12;99587.31;;;12.26;100.00
47524;BME280;33253;42.144;25.884;2023-04-25T04:51:39;99692.84;;;13.00;100.00
47524;BME280;33253;42.144;25.884;2023-04-25T04:54:05;99675.41;;;12.88;100.00
47524;BME280;33253;42.144;25.884;2023-04-25T04:56:31;99652.81;;;12.77;100.00
47524;BME280;33253;42.144;25.884;2023-04-25T04:58:57;99698.06;;;13.01;100.00
47524;BME280;33253;42.144;25.884;2023-04-25T05:01:23;99691.16;;;13.03;100.00
47524;BME280;33253;42.144;25.884;2023-04-25T05:03:48;99663.38;;;12.91;100.00
47524;BME280;33253;42.144;25.884;2023-04-25T05:06:14;99680.94;;;13.14;100.00
47524;BME280;33253;42.144;25.884;2023-04-25T05:08:40;99684.56;;;13.25;100.00
47524;BME280;33253;42.144;25.884;2023-04-25T05:11:05;99685.56;;;13.35;100.00
47524;BME280;33253;42.144;25.884;2023-04-25T05:13:31;99647.28;;;13.16;100.00
47524;BME280;33253;42.144;25.884;2023-04-25T05:15:56;99669.09;;;13.33;100.00
47524;BME280;33253;42.144;25.884;2023-04-25T05:18:22;99682.25;;;13.46;100.00
47524;BME280;33253;42.144;25.884;2023-04-25T05:20:47;99663.94;;;13.35;100.00
47524;BME280;33253;42.144;25.884;2023-04-25T05:23:13;99681.47;;;13.53;100.00
47524;BME280;33253;42.144;25.884;2023-04-25T05:25:38;99678.97;;;13.61;100.00
47524;BME280;33253;42.144;25.884;2023-04-25T05:28:04;99654.69;;;13.52;100.00
47524;BME280;33253;42.144;25.884;2023-04-25T05:30:30;99682.47;;;13.64;100.00
47524;BME280;33253;42.144;25.884;2023-04-25T05:32:56;99676.50;;;13.71;100.00
47524;BME280;33253;42.144;25.884;2023-04-25T05:35:21;99632.19;;;13.53;98.75
47524;BME280;33253;42.144;25.884;2023-04-25T05:37:47;99665.41;;;13.85;99.36
47524;BME280;33253;42.144;25.884;2023-04-25T05:40:12;99667.19;;;13.89;99.81
47524;BME280;33253;42.144;25.884;2023-04-25T05:42:38;99675.09;;;14.03;98.78
47524;BME280;33253;42.144;25.884;2023-04-25T05:45:04;99676.91;;;14.12;98.71
47524;BME280;33253;42.144;25.884;2023-04-25T05:47:29;99646.50;;;13.95;97.90
47524;BME280;33253;42.144;25.884;2023-04-25T05:49:55;99670.09;;;14.21;96.73
47524;BME280;33253;42.144;25.884;2023-04-25T05:52:20;99660.66;;;14.28;96.50
47524;BME280;33253;42.144;25.884;2023-04-25T05:54:45;99658.09;;;14.34;96.74
47524;BME280;33253;42.144;25.884;2023-04-25T05:57:24;99670.25;;;14.37;96.00
47524;BME280;33253;42.144;25.884;2023-04-25T05:59:50;99673.41;;;14.08;97.72
47524;BME280;33253;42.144;25.884;2023-04-25T06:02:15;99669.91;;;14.03;98.94
47524;BME280;33253;42.144;25.884;2023-04-25T06:04:41;99667.09;;;13.80;97.65
47524;BME280;33253;42.144;25.884;2023-04-25T06:07:06;99645.50;;;13.81;95.14
47524;BME280;33253;42.144;25.884;2023-04-25T06:09:32;99657.84;;;14.05;94.86
47524;BME280;33253;42.144;25.884;2023-04-25T06:11:57;99679.63;;;14.22;95.37
47524;BME280;33253;42.144;25.884;2023-04-25T06:14:22;99685.59;;;14.14;93.97
47524;BME280;33253;42.144;25.884;2023-04-25T06:16:48;99662.88;;;13.89;93.46
47524;BME280;33253;42.144;25.884;2023-04-25T06:19:13;99689.81;;;14.01;94.31
47524;BME280;33253;42.144;25.884;2023-04-25T06:21:39;99672.69;;;14.18;90.62
47524;BME280;33253;42.144;25.884;2023-04-25T06:24:04;99683.31;;;14.48;88.32
47524;BME280;33253;42.144;25.884;2023-04-25T06:26:30;99682.63;;;14.66;84.27
47524;BME280;33253;42.144;25.884;2023-04-25T06:28:55;99668.66;;;14.56;82.97
47524;BME280;33253;42.144;25.884;2023-04-25T06:31:20;99677.44;;;14.67;81.71
47524;BME280;33253;42.144;25.884;2023-04-25T06:33:46;99687.06;;;14.79;82.93
47524;BME280;33253;42.144;25.884;2023-04-25T06:36:13;99680.13;;;14.80;82.42
47524;BME280;33253;42.144;25.884;2023-04-25T06:38:41;99688.84;;;14.88;85.67
47524;BME280;33253;42.144;25.884;2023-04-25T06:41:07;99655.00;;;14.77;91.51
47524;BME280;33253;42.144;25.884;2023-04-25T06:43:32;99667.19;;;14.87;91.56
47524;BME280;33253;42.144;25.884;2023-04-25T06:45:59;99678.53;;;15.00;90.31
47524;BME280;33253;42.144;25.884;2023-04-25T06:48:26;99647.28;;;14.88;85.74
47524;BME280;33253;42.144;25.884;2023-04-25T06:50:52;99675.94;;;15.05;84.03
47524;BME280;33253;42.144;25.884;2023-04-25T06:53:17;99602.91;;;14.62;85.00
47524;BME280;33253;42.144;25.884;2023-04-25T06:55:43;99654.22;;;14.94;84.89
47524;BME280;33253;42.144;25.884;2023-04-25T06:58:09;99671.47;;;14.81;86.24
47524;BME280;33253;42.144;25.884;2023-04-25T07:00:35;99651.59;;;14.87;81.05
47524;BME280;33253;42.144;25.884;2023-04-25T07:03:01;99670.84;;;15.19;84.36
47524;BME280;33253;42.144;25.884;2023-04-25T07:05:27;99672.66;;;15.40;80.42
47524;BME280;33253;42.144;25.884;2023-04-25T07:07:52;99655.22;;;15.14;82.43
47524;BME280;33253;42.144;25.884;2023-04-25T07:10:18;99656.13;;;15.24;80.87
47524;BME280;33253;42.144;25.884;2023-04-25T07:12:43;99671.75;;;15.35;78.31
47524;BME280;33253;42.144;25.884;2023-04-25T07:15:09;99645.63;;;15.06;80.99
47524;BME280;33253;42.144;25.884;2023-04-25T07:17:35;99642.19;;;15.07;80.76
47524;BME280;33253;42.144;25.884;2023-04-25T07:20:01;99666.56;;;15.30;81.46
47524;BME280;33253;42.144;25.884;2023-04-25T07:22:26;99629.25;;;15.24;79.38
47524;BME280;33253;42.144;25.884;2023-04-25T07:24:52;99666.56;;;15.33;79.51
47524;BME280;33253;42.144;25.884;2023-04-25T07:27:18;99671.88;;;15.61;77.71
47524;BME280;33253;42.144;25.884;2023-04-25T07:29:44;99656.31;;;15.77;79.53
47524;BME280;33253;42.144;25.884;2023-04-25T07:32:09;99662.44;;;15.83;78.08
47524;BME280;33253;42.144;25.884;2023-04-25T07:34:37;99659.88;;;16.07;76.51
47524;BME280;33253;42.144;25.884;2023-04-25T07:37:04;99622.53;;;16.06;76.16
47524;BME280;33253;42.144;25.884;2023-04-25T07:39:30;99617.34;;;16.22;74.66
47524;BME280;33253;42.144;25.884;2023-04-25T07:41:55;99605.19;;;16.33;74.60
47524;BME280;33253;42.144;25.884;2023-04-25T07:44:21;99626.00;;;16.76;73.41
47524;BME280;33253;42.144;25.884;2023-04-25T07:46:46;99626.00;;;16.75;72.31
47524;BME280;33253;42.144;25.884;2023-04-25T07:49:12;99604.25;;;16.76;72.47
47524;BME280;33253;42.144;25.884;2023-04-25T07:51:37;99630.31;;;16.82;72.49
47524;BME280;33253;42.144;25.884;2023-04-25T07:54:03;99632.09;;;16.69;73.02
47524;BME280;33253;42.144;25.884;2023-04-25T07:56:28;99587.81;;;16.66;72.69
47524;BME280;33253;42.144;25.884;2023-04-25T07:58:55;99615.56;;;16.96;72.47
47524;BME280;33253;42.144;25.884;2023-04-25T08:01:20;99619.00;;;17.11;71.26
47524;BME280;33253;42.144;25.884;2023-04-25T08:03:46;99611.16;;;17.12;72.72
47524;BME280;33253;42.144;25.884;2023-04-25T08:06:12;99617.16;;;17.35;70.78
47524;BME280;33253;42.144;25.884;2023-04-25T08:08:37;99617.97;;;17.43;69.95
47524;BME280;33253;42.144;25.884;2023-04-25T08:11:02;99602.34;;;17.41;70.39
47524;BME280;33253;42.144;25.884;2023-04-25T08:13:28;99615.28;;;17.57;70.05
47524;BME280;33253;42.144;25.884;2023-04-25T08:15:53;99613.44;;;17.74;70.50
47524;BME280;33253;42.144;25.884;2023-04-25T08:18:19;99615.97;;;17.90;70.91
47524;BME280;33253;42.144;25.884;2023-04-25T08:20:45;99600.31;;;17.87;69.10
47524;BME280;33253;42.144;25.884;2023-04-25T08:23:10;99607.28;;;17.88;70.04
47524;BME280;33253;42.144;25.884;2023-04-25T08:25:36;99605.53;;;17.85;69.62
47524;BME280;33253;42.144;25.884;2023-04-25T08:28:02;99602.09;;;17.83;70.20
47524;BME280;33253;42.144;25.884;2023-04-25T08:30:28;99598.69;;;17.66;69.43
47524;BME280;33253;42.144;25.884;2023-04-25T08:32:54;99576.22;;;17.44;70.97
47524;BME280;33253;42.144;25.884;2023-04-25T08:35:20;99615.19;;;17.78;69.41
47524;BME280;33253;42.144;25.884;2023-04-25T08:37:45;99581.28;;;17.71;69.66
47524;BME280;33253;42.144;25.884;2023-04-25T08:40:12;99600.38;;;17.79;70.38
47524;BME280;33253;42.144;25.884;2023-04-25T08:42:41;99601.25;;;17.79;68.77
47524;BME280;33253;42.144;25.884;2023-04-25T08:45:08;99611.53;;;18.07;68.42
47524;BME280;33253;42.144;25.884;2023-04-25T08:47:34;99594.94;;;18.11;68.61
47524;BME280;33253;42.144;25.884;2023-04-25T08:50:02;99608.63;;;18.40;68.05
47524;BME280;33253;42.144;25.884;2023-04-25T08:52:31;99620.75;;;18.52;67.18
47524;BME280;33253;42.144;25.884;2023-04-25T08:54:58;99614.44;;;18.73;66.29
47524;BME280;33253;42.144;25.884;2023-04-25T08:57:26;99542.44;;;18.41;66.14
47524;BME280;33253;42.144;25.884;2023-04-25T08:59:52;99618.59;;;18.96;66.15
47524;BME280;33253;42.144;25.884;2023-04-25T09:02:18;99589.84;;;18.91;67.42
47524;BME280;33253;42.144;25.884;2023-04-25T09:04:46;99612.44;;;19.00;68.58
47524;BME280;33253;42.144;25.884;2023-04-25T09:07:11;99600.22;;;19.02;67.01
47524;BME280;33253;42.144;25.884;2023-04-25T09:09:37;99606.91;;;19.24;65.88
47524;BME280;33253;42.144;25.884;2023-04-25T09:12:02;99602.38;;;19.39;66.04
47524;BME280;33253;42.144;25.884;2023-04-25T09:14:28;99606.91;;;19.21;65.80
47524;BME280;33253;42.144;25.884;2023-04-25T09:19:29;99598.94;;;19.32;64.71
47524;BME280;33253;42.144;25.884;2023-04-25T09:21:59;99596.03;;;19.55;71.97
47524;BME280;33253;42.144;25.884;2023-04-25T09:24:44;99596.09;;;19.51;64.11
47524;BME280;33253;42.144;25.884;2023-04-25T09:27:19;99593.25;;;19.65;64.11
47524;BME280;33253;42.144;25.884;2023-04-25T09:29:45;99594.56;;;19.97;70.68
47524;BME280;33253;42.144;25.884;2023-04-25T09:32:14;99574.09;;;20.20;63.89
47524;BME280;33253;42.144;25.884;2023-04-25T09:34:41;99528.09;;;20.02;68.96
47524;BME280;33253;42.144;25.884;2023-04-25T09:37:10;99573.59;;;20.50;66.19
47524;BME280;33253;42.144;25.884;2023-04-25T09:39:38;99528.53;;;20.29;63.68
47524;BME280;33253;42.144;25.884;2023-04-25T09:42:05;99560.69;;;20.39;61.36
47524;BME280;33253;42.144;25.884;2023-04-25T09:44:30;99557.91;;;20.47;60.87
47524;BME280;33253;42.144;25.884;2023-04-25T09:46:56;99548.63;;;20.29;62.18
47524;BME280;33253;42.144;25.884;2023-04-25T09:49:22;99559.34;;;20.65;63.86
47524;BME280;33253;42.144;25.884;2023-04-25T09:51:58;99547.13;;;20.64;60.51
47524;BME280;33253;42.144;25.884;2023-04-25T09:54:26;99539.41;;;20.56;58.19
47524;BME280;33253;42.144;25.884;2023-04-25T09:56:53;99530.16;;;20.36;58.09
47524;BME280;33253;42.144;25.884;2023-04-25T09:59:22;99491.75;;;20.34;55.39
47524;BME280;33253;42.144;25.884;2023-04-25T10:01:52;99510.69;;;20.50;54.04
47524;BME280;33253;42.144;25.884;2023-04-25T10:04:24;99512.13;;;20.65;53.78
47524;BME280;33253;42.144;25.884;2023-04-25T10:06:53;99513.84;;;20.66;54.87
47524;BME280;33253;42.144;25.884;2023-04-25T10:09:20;99506.78;;;20.71;56.76
47524;BME280;33253;42.144;25.884;2023-04-25T10:11:47;99502.16;;;20.84;55.07
47524;BME280;33253;42.144;25.884;2023-04-25T10:14:16;99487.75;;;21.04;55.57
47524;BME280;33253;42.144;25.884;2023-04-25T10:16:41;99504.22;;;21.10;55.64
47524;BME280;33253;42.144;25.884;2023-04-25T10:19:09;99496.19;;;20.77;55.83
47524;BME280;33253;42.144;25.884;2023-04-25T10:21:37;99491.06;;;20.68;52.27
47524;BME280;33253;42.144;25.884;2023-04-25T10:24:05;99503.13;;;20.78;53.40
47524;BME280;33253;42.144;25.884;2023-04-25T10:26:30;99493.44;;;21.23;52.46
47524;BME280;33253;42.144;25.884;2023-04-25T10:28:58;99498.63;;;21.65;58.71
47524;BME280;33253;42.144;25.884;2023-04-25T10:31:24;99467.72;;;21.39;54.90
47524;BME280;33253;42.144;25.884;2023-04-25T10:33:50;99503.63;;;21.37;51.86
47524;BME280;33253;42.144;25.884;2023-04-25T10:36:21;99487.72;;;21.05;51.10
47524;BME280;33253;42.144;25.884;2023-04-25T10:38:48;99490.44;;;21.00;51.78
47524;BME280;33253;42.144;25.884;2023-04-25T10:41:19;99485.47;;;20.87;51.81
47524;BME280;33253;42.144;25.884;2023-04-25T10:43:50;99476.59;;;20.94;53.83
47524;BME280;33253;42.144;25.884;2023-04-25T10:46:27;99478.81;;;21.50;54.78
47524;BME280;33253;42.144;25.884;2023-04-25T10:49:00;99470.16;;;21.83;53.89
47524;BME280;33253;42.144;25.884;2023-04-25T10:51:33;99464.19;;;22.10;52.12
47524;BME280;33253;42.144;25.884;2023-04-25T10:54:06;99456.03;;;21.87;53.70
47524;BME280;33253;42.144;25.884;2023-04-25T10:59:12;99467.97;;;20.89;60.81
47524;BME280;33253;42.144;25.884;2023-04-25T11:01:42;99441.31;;;21.06;61.02
47524;BME280;33253;42.144;25.884;2023-04-25T11:04:28;99467.25;;;21.21;57.47
47524;BME280;33253;42.144;25.884;2023-04-25T11:09:40;99475.44;;;21.06;60.25
47524;BME280;33253;42.144;25.884;2023-04-25T11:12:09;99478.72;;;21.15;60.87
47524;BME280;33253;42.144;25.884;2023-04-25T11:14:36;99476.31;;;21.06;61.08
47524;BME280;33253;42.144;25.884;2023-04-25T11:17:02;99467.47;;;21.10;59.06
47524;BME280;33253;42.144;25.884;2023-04-25T11:19:28;99461.75;;;21.30;58.49
47524;BME280;33253;42.144;25.884;2023-04-25T11:21:58;99478.72;;;21.15;59.69
47524;BME280;33253;42.144;25.884;2023-04-25T11:24:32;99469.38;;;20.60;59.76
47524;BME280;33253;42.144;25.884;2023-04-25T11:27:01;99467.88;;;20.48;62.52
47524;BME280;33253;42.144;25.884;2023-04-25T11:29:32;99470.03;;;20.73;61.46
47524;BME280;33253;42.144;25.884;2023-04-25T11:31:58;99475.84;;;20.89;62.67
47524;BME280;33253;42.144;25.884;2023-04-25T11:34:25;99460.88;;;20.92;63.17
47524;BME280;33253;42.144;25.884;2023-04-25T11:36:51;99451.69;;;20.69;64.29
47524;BME280;33253;42.144;25.884;2023-04-25T11:39:19;99457.38;;;20.92;63.64
47524;BME280;33253;42.144;25.884;2023-04-25T11:41:44;99457.50;;;20.85;64.38
47524;BME280;33253;42.144;25.884;2023-04-25T11:44:10;99458.88;;;20.61;66.37
47524;BME280;33253;42.144;25.884;2023-04-25T11:46:35;99452.03;;;20.54;65.21
47524;BME280;33253;42.144;25.884;2023-04-25T11:49:02;99447.09;;;20.37;65.10
47524;BME280;33253;42.144;25.884;2023-04-25T11:51:40;99439.22;;;20.40;63.05
47524;BME280;33253;42.144;25.884;2023-04-25T11:54:06;99433.84;;;20.46;63.73
47524;BME280;33253;42.144;25.884;2023-04-25T11:56:32;99436.59;;;20.39;64.26
47524;BME280;33253;42.144;25.884;2023-04-25T11:59:02;99426.03;;;20.43;62.90
47524;BME280;33253;42.144;25.884;2023-04-25T12:01:29;99433.72;;;20.52;62.15
47524;BME280;33253;42.144;25.884;2023-04-25T12:03:56;99419.56;;;20.60;61.35
47524;BME280;33253;42.144;25.884;2023-04-25T12:06:26;99408.25;;;20.58;59.38
47524;BME280;33253;42.144;25.884;2023-04-25T12:09:06;99412.47;;;20.65;58.24
47524;BME280;33253;42.144;25.884;2023-04-25T12:11:32;99414.09;;;20.72;59.50
47524;BME280;33253;42.144;25.884;2023-04-25T12:14:03;99398.47;;;20.64;57.90
47524;BME280;33253;42.144;25.884;2023-04-25T12:16:39;99396.06;;;20.55;59.41
47524;BME280;33253;42.144;25.884;2023-04-25T12:19:05;99394.38;;;20.52;59.39
47524;BME280;33253;42.144;25.884;2023-04-25T12:21:32;99384.19;;;20.37;63.02
47524;BME280;33253;42.144;25.884;2023-04-25T12:24:10;99383.63;;;20.23;62.32
47524;BME280;33253;42.144;25.884;2023-04-25T12:26:59;99387.78;;;20.33;61.10
47524;BME280;33253;42.144;25.884;2023-04-25T12:29:27;99388.78;;;20.68;59.97
47524;BME280;33253;42.144;25.884;2023-04-25T12:31:54;99377.47;;;21.07;61.47
47524;BME280;33253;42.144;25.884;2023-04-25T12:34:21;99373.41;;;21.29;60.66
47524;BME280;33253;42.144;25.884;2023-04-25T12:36:47;99316.59;;;21.28;56.65
47524;BME280;33253;42.144;25.884;2023-04-25T12:39:23;99360.56;;;21.88;56.87
47524;BME280;33253;42.144;25.884;2023-04-25T12:41:52;99358.06;;;22.14;53.81
47524;BME280;33253;42.144;25.884;2023-04-25T12:44:19;99356.72;;;22.31;54.50
47524;BME280;33253;42.144;25.884;2023-04-25T12:46:45;99356.03;;;22.24;52.42
47524;BME280;33253;42.144;25.884;2023-04-25T12:49:10;99350.88;;;22.21;51.60
47524;BME280;33253;42.144;25.884;2023-04-25T12:51:37;99330.47;;;22.29;50.54